Time;durP1;ratioP1;P1;durP2;ratioP2;P2;SDS_P1;SDS_P2;PMS_P1;PMS_P2;Temp;Humidity;BMP_temperature;BMP_pressure;BME280_temperature;BME280_humidity;BME280_pressure;Samples;Min_cycle;Max_cycle;Signal;HPM_P1;HPM_P2
2021/04/30 00:00:52;;;;;;;26.95;17.95;;;8.40;90.50;;;;;;5054021;28;20029;-78
2021/04/30 00:03:19;;;;;;;26.60;17.63;;;8.40;90.70;;;;;;5053659;28;20104;-78
2021/04/30 00:05:46;;;;;;;22.58;16.38;;;8.40;90.70;;;;;;5053853;28;20040;-78
2021/04/30 00:08:12;;;;;;;24.58;17.40;;;8.40;90.70;;;;;;5053701;28;20029;-77
2021/04/30 00:10:38;;;;;;;25.90;17.50;;;8.30;90.70;;;;;;5052406;28;20070;-77
2021/04/30 00:13:04;;;;;;;24.63;17.35;;;8.30;90.80;;;;;;5053876;28;20025;-77
2021/04/30 00:15:30;;;;;;;26.95;17.25;;;8.30;90.80;;;;;;5052023;28;20032;-77
2021/04/30 00:17:56;;;;;;;21.70;16.15;;;8.20;91.00;;;;;;5053577;28;20380;-77
2021/04/30 00:20:22;;;;;;;24.50;17.17;;;8.20;91.00;;;;;;5053396;28;20100;-77
2021/04/30 00:22:47;;;;;;;24.73;15.82;;;8.20;91.20;;;;;;5053351;28;20040;-77
2021/04/30 00:25:13;;;;;;;31.88;16.52;;;8.20;90.90;;;;;;5053723;28;20106;-77
2021/04/30 00:27:39;;;;;;;31.50;17.85;;;8.20;91.10;;;;;;5052244;28;20025;-77
2021/04/30 00:30:07;;;;;;;24.85;17.42;;;8.20;91.00;;;;;;5053773;28;20049;-77
2021/04/30 00:32:32;;;;;;;28.13;17.45;;;8.20;91.10;;;;;;5053215;28;20033;-77
2021/04/30 00:35:01;;;;;;;31.67;19.25;;;8.10;91.00;;;;;;5053419;28;20036;-77
2021/04/30 00:37:26;;;;;;;34.67;19.55;;;8.10;91.20;;;;;;5051896;28;20074;-77
2021/04/30 00:39:52;;;;;;;35.80;20.20;;;8.10;91.50;;;;;;5053364;28;20445;-77
2021/04/30 00:42:18;;;;;;;28.85;18.98;;;8.10;91.40;;;;;;5053169;28;20108;-77
2021/04/30 00:44:45;;;;;;;39.25;17.55;;;8.10;91.60;;;;;;5053237;28;20078;-77
2021/04/30 00:47:34;;;;;;;27.27;17.73;;;8.10;91.40;;;;;;5053354;28;20100;-77
2021/04/30 00:50:02;;;;;;;29.83;18.30;;;8.10;91.40;;;;;;5053091;28;20107;-77
2021/04/30 00:52:28;;;;;;;31.00;19.30;;;8.10;91.30;;;;;;5051991;28;20087;-77
2021/04/30 00:54:54;;;;;;;34.72;20.35;;;8.10;91.40;;;;;;5053303;28;20029;-77
2021/04/30 00:57:20;;;;;;;33.63;22.25;;;8.00;91.40;;;;;;5051776;28;20025;-77
2021/04/30 00:59:45;;;;;;;45.30;27.38;;;8.00;91.60;;;;;;5053193;28;20407;-77
2021/04/30 01:02:12;;;;;;;50.08;30.10;;;8.00;91.40;;;;;;5053376;28;20025;-77
2021/04/30 01:04:38;;;;;;;51.08;32.28;;;8.00;91.40;;;;;;5056591;28;20025;-77
2021/04/30 01:07:03;;;;;;;57.35;33.92;;;8.00;91.40;;;;;;5056869;28;20021;-77
2021/04/30 01:09:29;;;;;;;47.78;30.88;;;8.00;91.70;;;;;;5057187;28;20371;-77
2021/04/30 01:11:56;;;;;;;45.53;27.85;;;8.00;91.50;;;;;;5056924;28;20079;-77
2021/04/30 01:14:22;;;;;;;40.17;25.30;;;8.00;91.60;;;;;;5056877;28;20032;-77
2021/04/30 01:16:47;;;;;;;41.33;25.13;;;8.00;91.50;;;;;;5056731;28;20028;-77
2021/04/30 01:19:21;;;;;;;36.80;26.02;;;8.10;91.60;;;;;;5055531;28;20102;-77
2021/04/30 01:21:57;;;;;;;34.17;23.77;;;8.00;91.70;;;;;;5055203;28;20064;-77
2021/04/30 01:24:24;;;;;;;34.15;22.45;;;8.00;91.70;;;;;;5056491;28;20478;-77
2021/04/30 01:26:50;;;;;;;34.30;22.73;;;8.00;91.60;;;;;;5056567;28;20028;-77
2021/04/30 01:29:16;;;;;;;36.47;23.27;;;8.00;91.50;;;;;;5055333;28;20477;-77
2021/04/30 01:31:46;;;;;;;35.30;22.95;;;8.00;91.60;;;;;;5056794;28;20029;-77
2021/04/30 01:34:12;;;;;;;34.72;23.25;;;8.00;91.60;;;;;;5056434;28;20024;-77
2021/04/30 01:36:39;;;;;;;36.70;23.05;;;8.00;91.70;;;;;;5055014;28;20464;-77
2021/04/30 01:39:14;;;;;;;36.40;24.60;;;7.90;91.70;;;;;;5055018;28;20064;-77
2021/04/30 01:41:41;;;;;;;35.47;24.42;;;7.90;91.80;;;;;;5054940;28;20533;-77
2021/04/30 01:44:09;;;;;;;35.17;22.73;;;7.80;91.80;;;;;;5054824;28;20029;-77
2021/04/30 01:46:35;;;;;;;32.83;22.13;;;7.80;91.70;;;;;;5056594;28;20071;-77
2021/04/30 01:49:02;;;;;;;34.17;22.73;;;7.80;91.70;;;;;;5056306;28;20422;-77
2021/04/30 01:51:28;;;;;;;32.03;22.38;;;7.70;91.80;;;;;;5056306;28;20029;-77
2021/04/30 01:53:53;;;;;;;36.08;23.13;;;7.70;91.70;;;;;;5054827;28;20135;-77
2021/04/30 01:56:19;;;;;;;36.47;22.88;;;7.70;91.80;;;;;;5055998;28;20018;-77
2021/04/30 01:58:45;;;;;;;40.30;25.85;;;7.70;91.80;;;;;;5054804;28;20464;-77
2021/04/30 02:01:11;;;;;;;39.55;26.05;;;7.70;92.00;;;;;;5056243;28;20364;-78
2021/04/30 02:03:37;;;;;;;44.20;26.65;;;7.60;92.00;;;;;;5054525;28;20039;-78
2021/04/30 02:06:04;;;;;;;46.60;28.25;;;7.60;92.10;;;;;;5055852;28;20025;-78
2021/04/30 02:08:30;;;;;;;46.80;27.02;;;7.60;92.10;;;;;;5035249;28;20495;-77
2021/04/30 02:10:56;;;;;;;47.35;27.23;;;7.50;92.00;;;;;;5035690;28;20144;-77
2021/04/30 02:13:22;;;;;;;39.28;26.90;;;7.50;92.10;;;;;;5035815;28;20036;-77
2021/04/30 02:15:52;;;;;;;53.13;30.45;;;7.50;92.20;;;;;;5033152;28;20494;-78
2021/04/30 02:18:18;;;;;;;42.65;27.85;;;7.50;92.30;;;;;;5038724;28;20090;-79
2021/04/30 02:20:44;;;;;;;50.17;33.00;;;7.40;92.10;;;;;;5055792;28;20021;-79
2021/04/30 02:23:10;;;;;;;60.25;37.28;;;7.40;92.20;;;;;;5054273;28;20029;-79
2021/04/30 02:25:37;;;;;;;68.05;40.60;;;7.40;92.30;;;;;;5054289;28;20021;-79
2021/04/30 02:28:03;;;;;;;62.10;37.97;;;7.40;92.30;;;;;;5055763;28;20023;-79
2021/04/30 02:30:32;;;;;;;69.55;44.65;;;7.30;92.40;;;;;;5053971;28;20021;-79
2021/04/30 02:32:58;;;;;;;70.85;41.22;;;7.30;92.50;;;;;;5055309;28;20025;-79
2021/04/30 02:35:27;;;;;;;72.28;46.08;;;7.30;92.60;;;;;;5055277;28;20025;-78
2021/04/30 02:37:53;;;;;;;54.10;36.47;;;7.30;93.00;;;;;;5055242;28;20447;-78
2021/04/30 02:40:23;;;;;;;47.17;32.38;;;7.40;92.80;;;;;;5054196;28;20379;-78
2021/04/30 02:42:50;;;;;;;47.30;30.85;;;7.40;92.90;;;;;;5055003;28;20032;-79
2021/04/30 02:45:17;;;;;;;47.08;29.88;;;7.40;92.70;;;;;;5053793;28;20530;-79
2021/04/30 02:47:47;;;;;;;45.25;29.38;;;7.50;92.60;;;;;;5052827;28;20028;-79
2021/04/30 02:50:23;;;;;;;40.45;26.35;;;7.50;92.50;;;;;;5053534;28;20053;-78
2021/04/30 02:52:49;;;;;;;46.65;25.70;;;7.50;92.60;;;;;;5054754;28;20479;-79
2021/04/30 02:55:17;;;;;;;38.58;23.52;;;7.50;92.80;;;;;;5053486;28;20031;-78
2021/04/30 02:57:43;;;;;;;33.78;22.15;;;7.50;92.70;;;;;;5054719;28;20031;-78
2021/04/30 03:00:12;;;;;;;29.20;21.35;;;7.50;93.00;;;;;;5054488;28;20029;-78
2021/04/30 03:02:38;;;;;;;30.00;20.67;;;7.60;92.80;;;;;;5053120;28;20052;-78
2021/04/30 03:05:04;;;;;;;31.63;18.67;;;7.60;92.90;;;;;;5053220;28;20483;-79
2021/04/30 03:07:30;;;;;;;29.40;20.30;;;7.70;92.80;;;;;;5052542;28;20116;-79
2021/04/30 03:09:56;;;;;;;32.60;22.05;;;7.70;92.90;;;;;;5052121;28;20119;-79
2021/04/30 03:12:21;;;;;;;31.38;21.42;;;7.80;92.90;;;;;;5052756;28;20083;-79
2021/04/30 03:14:47;;;;;;;29.30;21.38;;;7.80;92.80;;;;;;5053797;28;20033;-79
2021/04/30 03:17:13;;;;;;;30.67;20.25;;;7.80;93.10;;;;;;5052836;28;20029;-79
2021/04/30 03:19:39;;;;;;;28.00;20.42;;;7.90;92.80;;;;;;5054555;28;20028;-79
2021/04/30 03:22:04;;;;;;;26.48;19.38;;;7.90;92.90;;;;;;5054309;28;20103;-79
2021/04/30 03:24:30;;;;;;;30.08;20.10;;;8.00;92.80;;;;;;5052995;28;20112;-77
2021/04/30 03:26:56;;;;;;;42.08;25.95;;;8.00;92.90;;;;;;5053938;28;20032;-79
2021/04/30 03:29:22;;;;;;;36.58;24.58;;;8.00;93.00;;;;;;5054197;28;20104;-81
2021/04/30 03:31:47;;;;;;;34.95;24.38;;;8.10;93.10;;;;;;5054118;28;20025;-81
2021/04/30 03:34:13;;;;;;;31.48;21.85;;;8.20;93.20;;;;;;5052770;28;20475;-81
2021/04/30 03:36:39;;;;;;;35.42;21.73;;;8.30;93.00;;;;;;5054069;28;20028;-81
2021/04/30 03:39:07;;;;;;;32.17;21.67;;;8.40;92.90;;;;;;5052854;28;20463;-81
2021/04/30 03:41:33;;;;;;;27.23;19.77;;;8.40;92.90;;;;;;5053883;28;20485;-81
2021/04/30 03:43:59;;;;;;;31.00;21.17;;;8.50;92.80;;;;;;5052609;28;20051;-80
2021/04/30 03:46:25;;;;;;;32.92;21.52;;;8.60;92.90;;;;;;5053958;28;20098;-81
2021/04/30 03:48:50;;;;;;;31.70;22.13;;;8.70;92.80;;;;;;5054006;28;20025;-81
2021/04/30 03:51:16;;;;;;;34.45;24.15;;;8.90;92.70;;;;;;5053684;28;20503;-81
2021/04/30 03:53:42;;;;;;;39.90;25.40;;;8.90;92.50;;;;;;5053705;28;20025;-80
2021/04/30 03:56:07;;;;;;;36.53;23.85;;;9.10;92.60;;;;;;5052304;28;20025;-80
2021/04/30 03:58:33;;;;;;;36.15;25.77;;;9.20;92.50;;;;;;5052447;28;20036;-80
2021/04/30 04:00:59;;;;;;;32.42;21.25;;;9.20;92.40;;;;;;5053809;28;20032;-80
2021/04/30 04:03:38;;;;;;;32.20;21.52;;;9.30;92.30;;;;;;5038005;28;20025;-80
2021/04/30 04:06:06;;;;;;;32.67;21.02;;;9.50;92.20;;;;;;5053192;28;20066;-80
2021/04/30 04:08:32;;;;;;;29.60;19.10;;;9.60;92.20;;;;;;5052258;28;20025;-79
2021/04/30 04:10:58;;;;;;;30.52;18.63;;;9.70;92.10;;;;;;5052233;28;20112;-80
2021/04/30 04:13:26;;;;;;;29.90;15.70;;;9.80;92.20;;;;;;5053310;28;20467;-79
2021/04/30 04:15:54;;;;;;;28.35;17.33;;;9.90;92.00;;;;;;5053489;28;20417;-80
2021/04/30 04:18:23;;;;;;;37.53;16.23;;;10.00;91.90;;;;;;5053261;28;20017;-80
2021/04/30 04:20:48;;;;;;;29.17;17.40;;;10.10;91.80;;;;;;5053417;28;20483;-80
2021/04/30 04:23:14;;;;;;;38.95;17.75;;;10.30;91.70;;;;;;5051920;28;20021;-81
2021/04/30 04:25:40;;;;;;;36.45;16.33;;;10.40;91.50;;;;;;5051941;28;20025;-81
2021/04/30 04:28:06;;;;;;;32.72;15.63;;;10.60;91.30;;;;;;5052146;28;20056;-80
2021/04/30 04:30:33;;;;;;;34.17;16.02;;;10.70;91.20;;;;;;5053271;28;20021;-81
2021/04/30 04:32:58;;;;;;;32.97;15.00;;;10.80;91.10;;;;;;5051905;28;20032;-80
2021/04/30 04:35:24;;;;;;;31.40;14.80;;;10.90;90.80;;;;;;5051958;28;20029;-78
2021/04/30 04:37:50;;;;;;;33.15;14.80;;;11.10;90.80;;;;;;5052673;28;20021;-79
2021/04/30 04:40:16;;;;;;;35.42;15.95;;;11.30;90.70;;;;;;5057168;28;20032;-80
2021/04/30 04:42:43;;;;;;;37.58;16.35;;;11.50;90.40;;;;;;5057059;28;20036;-80
2021/04/30 04:45:11;;;;;;;31.90;16.77;;;11.70;90.30;;;;;;5057210;28;20144;-79
2021/04/30 04:47:36;;;;;;;32.10;17.52;;;11.90;90.00;;;;;;5056916;28;20166;-79
2021/04/30 04:50:03;;;;;;;26.40;15.32;;;12.00;89.60;;;;;;5055522;28;20128;-81
2021/04/30 04:52:29;;;;;;;20.27;14.48;;;12.10;89.30;;;;;;5055684;28;20032;-83
2021/04/30 04:54:55;;;;;;;22.15;12.77;;;12.30;89.10;;;;;;5057023;28;20723;-80
2021/04/30 04:57:20;;;;;;;17.30;12.02;;;12.40;88.90;;;;;;5056745;28;20025;-81
2021/04/30 04:59:46;;;;;;;19.83;12.73;;;12.40;88.70;;;;;;5055396;28;20033;-81
2021/04/30 05:02:12;;;;;;;16.95;12.45;;;12.50;88.10;;;;;;5056981;28;20021;-81
2021/04/30 05:04:37;;;;;;;18.20;11.55;;;12.60;88.00;;;;;;5056628;28;20029;-84
2021/04/30 05:07:04;;;;;;;14.98;11.68;;;12.60;87.80;;;;;;5055621;28;20031;-88
2021/04/30 05:09:29;;;;;;;14.45;11.05;;;12.80;87.70;;;;;;5055608;28;20079;-87
2021/04/30 05:11:56;;;;;;;21.17;13.70;;;13.00;87.80;;;;;;5057135;28;20025;-87
2021/04/30 05:14:22;;;;;;;15.10;12.30;;;13.10;86.90;;;;;;5056286;28;20100;-87
2021/04/30 05:16:48;;;;;;;26.35;15.68;;;13.40;87.00;;;;;;5056857;28;20102;-88
2021/04/30 05:19:14;;;;;;;27.25;16.95;;;13.50;86.60;;;;;;5055489;28;20029;-86
2021/04/30 05:21:41;;;;;;;19.88;13.98;;;13.60;86.00;;;;;;5055479;28;20029;-87
2021/04/30 05:24:11;;;;;;;24.02;14.25;;;13.70;85.80;;;;;;5055609;28;20021;-86
2021/04/30 05:26:37;;;;;;;18.63;14.13;;;13.90;85.50;;;;;;5056495;28;20029;-88
2021/04/30 05:29:04;;;;;;;17.90;13.63;;;13.90;85.10;;;;;;5056595;28;20029;-84
2021/04/30 05:31:30;;;;;;;21.73;13.43;;;13.90;85.40;;;;;;5055474;28;20482;-86
2021/04/30 05:33:55;;;;;;;18.13;12.27;;;13.90;84.90;;;;;;5056219;28;20031;-87
2021/04/30 05:36:21;;;;;;;21.08;14.10;;;14.00;85.60;;;;;;5056217;28;20483;-85
2021/04/30 05:38:47;;;;;;;29.35;19.60;;;14.00;85.60;;;;;;5055377;28;20398;-85
2021/04/30 05:41:12;;;;;;;19.50;13.32;;;14.10;85.40;;;;;;5056341;28;20025;-86
2021/04/30 05:43:38;;;;;;;19.58;13.00;;;14.20;85.30;;;;;;5056414;28;20458;-84
2021/04/30 05:46:04;;;;;;;14.77;10.50;;;14.30;85.40;;;;;;5055061;28;20031;-78
2021/04/30 05:48:29;;;;;;;14.27;10.40;;;14.30;85.40;;;;;;5056304;28;20090;-79
2021/04/30 05:50:55;;;;;;;20.48;14.40;;;14.40;85.40;;;;;;5056126;28;20053;-78
2021/04/30 05:53:22;;;;;;;12.57;11.07;;;14.40;85.10;;;;;;5055251;28;20119;-79
2021/04/30 05:55:48;;;;;;;12.77;10.40;;;14.50;85.20;;;;;;5054888;28;20020;-78
2021/04/30 05:58:14;;;;;;;13.10;10.10;;;14.60;84.90;;;;;;5054760;28;20120;-78
2021/04/30 06:00:40;;;;;;;12.63;10.63;;;14.80;84.40;;;;;;5054765;28;20060;-80
2021/04/30 06:03:06;;;;;;;15.75;11.27;;;14.80;84.40;;;;;;5055933;28;20029;-79
2021/04/30 06:05:31;;;;;;;13.65;10.13;;;14.90;84.10;;;;;;5055941;28;20021;-79
2021/04/30 06:07:57;;;;;;;15.05;11.63;;;14.90;84.00;;;;;;5056076;28;20100;-78
2021/04/30 06:10:23;;;;;;;17.70;12.00;;;15.00;84.00;;;;;;5054560;28;20029;-78
2021/04/30 06:12:49;;;;;;;21.08;13.43;;;15.20;83.70;;;;;;5055812;28;20086;-78
2021/04/30 06:15:15;;;;;;;16.23;12.82;;;15.30;83.70;;;;;;5055736;28;20083;-78
2021/04/30 06:17:40;;;;;;;16.17;12.30;;;15.30;83.60;;;;;;5054283;28;20078;-78
2021/04/30 06:20:07;;;;;;;17.90;13.88;;;15.40;83.70;;;;;;5055915;28;20067;-78
2021/04/30 06:22:32;;;;;;;18.35;13.70;;;15.40;83.50;;;;;;5054949;28;20459;-78
2021/04/30 06:24:58;;;;;;;15.85;11.63;;;15.50;83.60;;;;;;5054156;28;20147;-78
2021/04/30 06:27:25;;;;;;;20.33;11.20;;;15.40;83.70;;;;;;5054230;28;20028;-78
2021/04/30 06:29:50;;;;;;;13.95;10.75;;;15.30;83.70;;;;;;5054047;28;20074;-78
2021/04/30 06:32:16;;;;;;;14.30;10.10;;;15.40;84.20;;;;;;5054089;28;20028;-78
2021/04/30 06:34:42;;;;;;;12.82;9.38;;;15.40;84.30;;;;;;5055302;28;20100;-78
2021/04/30 06:37:07;;;;;;;15.85;9.23;;;15.50;84.30;;;;;;5055390;28;20383;-79
2021/04/30 06:39:33;;;;;;;15.45;10.45;;;15.60;83.40;;;;;;5055150;28;20025;-79
2021/04/30 06:42:02;;;;;;;12.43;9.32;;;15.60;83.40;;;;;;5053854;28;20033;-78
2021/04/30 06:44:29;;;;;;;10.40;8.13;;;15.70;83.50;;;;;;5055000;28;20078;-81
2021/04/30 06:46:56;;;;;;;22.40;9.60;;;15.70;83.50;;;;;;5055266;28;20032;-79
2021/04/30 06:49:22;;;;;;;19.30;9.98;;;15.80;82.40;;;;;;5053721;28;20099;-79
2021/04/30 06:51:49;;;;;;;11.65;7.97;;;15.80;82.10;;;;;;5054007;28;20033;-79
2021/04/30 06:54:18;;;;;;;11.75;7.80;;;15.90;82.10;;;;;;5055000;28;20096;-79
2021/04/30 06:56:44;;;;;;;9.25;7.53;;;16.00;81.60;;;;;;5053664;28;20021;-79
2021/04/30 06:59:10;;;;;;;12.07;7.18;;;16.10;80.90;;;;;;5053664;28;20453;-80
2021/04/30 07:01:36;;;;;;;11.00;8.00;;;16.20;80.70;;;;;;5052878;28;20109;-78
2021/04/30 07:04:02;;;;;;;11.90;8.23;;;16.30;81.20;;;;;;5054715;28;20384;-79
2021/04/30 07:06:28;;;;;;;16.42;7.88;;;16.40;81.20;;;;;;5053409;28;20536;-78
2021/04/30 07:08:53;;;;;;;13.23;7.30;;;16.60;81.10;;;;;;5053449;28;20025;-78
2021/04/30 07:11:19;;;;;;;12.20;7.80;;;16.80;80.80;;;;;;5053404;28;20070;-79
2021/04/30 07:13:45;;;;;;;10.35;7.40;;;16.90;80.70;;;;;;5054517;28;20055;-78
2021/04/30 07:16:11;;;;;;;11.20;6.90;;;17.10;80.20;;;;;;5053148;28;20039;-78
2021/04/30 07:18:37;;;;;;;10.35;6.95;;;17.20;79.70;;;;;;5054336;28;20036;-79
2021/04/30 07:21:04;;;;;;;7.43;6.45;;;17.20;78.20;;;;;;5054641;28;20031;-79
2021/04/30 07:23:30;;;;;;;9.77;6.10;;;17.30;77.60;;;;;;5052933;28;20394;-78
2021/04/30 07:25:56;;;;;;;7.68;5.45;;;17.30;76.70;;;;;;5053049;28;20020;-78
2021/04/30 07:28:23;;;;;;;7.35;5.30;;;17.30;75.50;;;;;;5054284;28;20092;-80
2021/04/30 07:30:50;;;;;;;8.27;6.22;;;17.40;75.20;;;;;;5052819;28;20071;-82
2021/04/30 07:33:16;;;;;;;11.05;5.78;;;17.40;75.00;;;;;;5053141;28;20082;-79
2021/04/30 07:35:42;;;;;;;8.50;5.32;;;17.40;74.70;;;;;;5054397;28;20455;-79
2021/04/30 07:38:09;;;;;;;7.50;6.38;;;17.50;74.70;;;;;;5052830;28;20029;-78
2021/04/30 07:40:39;;;;;;;7.82;5.60;;;17.50;74.10;;;;;;5052341;28;20095;-79
2021/04/30 07:43:08;;;;;;;;;;;17.60;74.10;;;;;;5053108;28;20075;-83
2021/04/30 07:45:35;;;;;;;7.68;4.88;;;17.60;73.00;;;;;;5053971;28;19904;-79
2021/04/30 07:48:00;;;;;;;6.93;4.70;;;17.70;73.70;;;;;;5053970;28;20044;-77
2021/04/30 07:50:26;;;;;;;6.63;5.40;;;17.80;74.10;;;;;;5053737;28;20515;-78
2021/04/30 07:52:52;;;;;;;10.60;4.88;;;17.90;72.90;;;;;;5052540;28;20474;-78
2021/04/30 07:55:18;;;;;;;8.45;4.75;;;18.00;73.60;;;;;;5052554;28;20025;-78
2021/04/30 07:57:44;;;;;;;7.63;5.22;;;18.10;71.70;;;;;;5052555;28;20070;-79
2021/04/30 08:00:10;;;;;;;7.65;4.72;;;18.10;71.10;;;;;;5053716;28;20471;-80
2021/04/30 08:02:36;;;;;;;6.93;4.00;;;18.30;70.00;;;;;;5052385;28;20036;-79
2021/04/30 08:05:02;;;;;;;7.68;4.20;;;18.40;70.00;;;;;;5052407;28;20021;-78
2021/04/30 08:07:27;;;;;;;7.20;4.15;;;18.50;69.60;;;;;;5053558;28;20032;-78
2021/04/30 08:09:55;;;;;;;6.00;3.70;;;18.60;68.10;;;;;;5053541;28;20028;-79
2021/04/30 08:12:20;;;;;;;5.70;3.58;;;18.60;66.90;;;;;;5052958;28;20075;-80
2021/04/30 08:14:46;;;;;;;7.35;4.22;;;18.70;67.00;;;;;;5052136;28;20025;-80
2021/04/30 08:17:12;;;;;;;6.07;4.43;;;18.80;65.90;;;;;;5053072;28;20053;-78
2021/04/30 08:19:38;;;;;;;9.45;4.70;;;18.90;66.10;;;;;;5052255;28;20383;-79
2021/04/30 08:22:03;;;;;;;6.82;4.28;;;18.90;65.50;;;;;;5053379;28;20033;-79
2021/04/30 08:24:29;;;;;;;4.88;3.55;;;18.90;64.40;;;;;;5052114;28;20079;-80
2021/04/30 08:26:55;;;;;;;7.20;4.20;;;18.90;65.50;;;;;;5052167;28;20028;-78
2021/04/30 08:29:20;;;;;;;7.97;4.15;;;19.00;64.90;;;;;;5052050;28;20021;-83
2021/04/30 08:31:46;;;;;;;4.78;3.90;;;19.00;65.10;;;;;;5053395;28;20025;-79
2021/04/30 08:34:12;;;;;;;6.35;4.13;;;19.10;65.10;;;;;;5052008;28;20079;-80
2021/04/30 08:36:37;;;;;;;6.90;4.25;;;19.10;64.60;;;;;;5053284;28;20021;-79
2021/04/30 08:39:05;;;;;;;7.90;4.30;;;19.20;64.60;;;;;;5053583;28;20032;-77
2021/04/30 08:41:34;;;;;;;6.97;3.97;;;19.20;65.10;;;;;;5051942;28;20028;-78
2021/04/30 08:44:00;;;;;;;8.18;4.57;;;19.20;64.30;;;;;;5053265;28;20021;-79
2021/04/30 08:46:26;;;;;;;8.27;4.45;;;19.30;65.40;;;;;;5051888;28;20116;-77
2021/04/30 08:48:51;;;;;;;6.70;4.63;;;19.40;65.60;;;;;;5052051;28;20486;-79
2021/04/30 08:51:17;;;;;;;7.75;4.13;;;19.40;65.40;;;;;;5052817;28;20510;-79
2021/04/30 08:53:43;;;;;;;6.63;4.80;;;19.40;65.70;;;;;;5051836;28;20471;-80
2021/04/30 08:56:09;;;;;;;11.35;5.65;;;19.50;65.40;;;;;;5053730;28;20143;-80
2021/04/30 08:58:38;;;;;;;6.45;4.30;;;19.60;63.90;;;;;;5051804;28;20025;-80
2021/04/30 09:01:05;;;;;;;7.10;4.13;;;19.60;63.00;;;;;;5051822;28;20888;-80
2021/04/30 09:03:34;;;;;;;7.78;3.97;;;19.70;62.90;;;;;;5051686;28;20032;-79
2021/04/30 09:06:00;;;;;;;6.40;3.83;;;19.80;63.20;;;;;;5052091;28;20021;-79
2021/04/30 09:08:27;;;;;;;10.00;4.55;;;19.80;62.80;;;;;;5051742;28;20502;-81
2021/04/30 09:10:56;;;;;;;8.75;4.95;;;19.90;62.90;;;;;;5052984;28;20025;-81
2021/04/30 09:13:23;;;;;;;6.47;4.03;;;20.00;63.80;;;;;;5051641;28;20029;-82
2021/04/30 09:16:03;;;;;;;8.57;4.43;;;20.20;62.80;;;;;;5052923;28;20021;-80
2021/04/30 09:18:32;;;;;;;7.40;3.90;;;20.30;62.50;;;;;;5051833;28;20040;-85
2021/04/30 09:21:09;;;;;;;5.82;3.70;;;20.40;60.60;;;;;;5052862;28;20045;-83
2021/04/30 09:23:36;;;;;;;10.70;5.20;;;20.50;60.20;;;;;;5051828;28;20025;-79
2021/04/30 09:26:19;;;;;;;7.03;4.43;;;20.40;60.00;;;;;;5056499;28;20044;-79
2021/04/30 09:28:57;;;;;;;11.88;4.25;;;20.50;60.40;;;;;;5055297;28;20021;-80
2021/04/30 09:31:33;;;;;;;5.53;4.20;;;20.50;60.70;;;;;;5055104;28;20036;-80
2021/04/30 09:34:15;;;;;;;8.30;4.28;;;20.60;61.30;;;;;;5055697;28;20027;-78
2021/04/30 09:37:15;;;;;;;5.18;4.13;;;20.60;59.10;;;;;;5055527;28;20426;-85
2021/04/30 09:40:07;;;;;;;16.83;5.50;;;20.70;59.20;;;;;;5044448;28;20033;-86
2021/04/30 09:42:36;;;;;;;7.68;5.10;;;20.70;59.60;;;;;;5054894;28;20029;-85
2021/04/30 09:45:08;;;;;;;7.47;4.60;;;20.70;59.80;;;;;;5055523;28;20048;-87
2021/04/30 09:47:35;;;;;;;5.13;3.97;;;20.70;58.90;;;;;;5054571;28;20391;-80
2021/04/30 09:50:22;;;;;;;11.43;4.40;;;20.80;58.60;;;;;;5054932;28;20104;-83
2021/04/30 09:53:02;;;;;;;7.68;4.03;;;20.90;58.70;;;;;;5055626;28;20032;-81
2021/04/30 09:56:01;;;;;;;8.93;3.83;;;20.90;57.90;;;;;;5056032;28;20471;-83
2021/04/30 09:58:29;;;;;;;6.97;4.10;;;21.00;58.20;;;;;;5048527;28;20072;-82
2021/04/30 10:00:59;;;;;;;6.80;4.10;;;21.00;58.50;;;;;;5055937;28;20021;-79
2021/04/30 10:03:28;;;;;;;7.07;3.92;;;21.10;58.80;;;;;;5054550;28;20064;-81
2021/04/30 10:06:19;;;;;;;9.15;3.85;;;21.20;57.70;;;;;;5055832;28;20024;-86
2021/04/30 10:09:06;;;;;;;7.03;4.00;;;21.20;57.20;;;;;;5054706;28;20475;-82
2021/04/30 10:11:34;;;;;;;8.00;3.80;;;21.30;57.60;;;;;;5054538;28;20025;-79
2021/04/30 10:14:01;;;;;;;5.93;3.72;;;21.40;57.80;;;;;;5055213;28;20427;-81
2021/04/30 10:16:26;;;;;;;6.65;3.83;;;21.40;57.40;;;;;;5055847;28;20021;-84
2021/04/30 10:18:52;;;;;;;8.65;3.97;;;21.50;57.50;;;;;;5054395;28;20112;-85
2021/04/30 10:21:19;;;;;;;7.32;4.30;;;21.50;57.20;;;;;;5054903;28;20528;-78
2021/04/30 10:23:50;;;;;;;10.30;4.00;;;21.70;57.10;;;;;;5054506;28;20028;-82
2021/04/30 10:26:17;;;;;;;8.65;3.85;;;21.70;56.30;;;;;;5054480;28;20055;-83
2021/04/30 10:28:50;;;;;;;11.38;3.50;;;21.80;57.00;;;;;;5055447;28;20529;-81
2021/04/30 10:31:24;;;;;;;8.15;3.25;;;21.90;57.10;;;;;;5053646;28;20167;-81
2021/04/30 10:34:04;;;;;;;12.45;4.22;;;22.00;56.70;;;;;;5053911;28;20478;-80
2021/04/30 10:36:40;;;;;;;8.23;4.13;;;22.10;55.80;;;;;;5052284;28;20124;-79
2021/04/30 10:39:07;;;;;;;7.78;4.10;;;22.10;56.60;;;;;;5053144;28;20057;-80
2021/04/30 10:41:38;;;;;;;5.78;3.90;;;22.20;55.90;;;;;;5054334;28;20017;-80
2021/04/30 10:44:11;;;;;;;5.82;3.33;;;22.30;56.50;;;;;;5052844;28;20029;-85
2021/04/30 10:46:37;;;;;;;7.10;4.07;;;22.40;56.10;;;;;;5053725;28;20382;-80
2021/04/30 10:49:11;;;;;;;8.43;3.70;;;22.40;56.60;;;;;;5053447;28;20028;-80
2021/04/30 10:51:38;;;;;;;11.85;3.97;;;22.40;55.30;;;;;;5055071;28;20033;-80
2021/04/30 10:54:27;;;;;;;11.23;3.78;;;22.30;55.20;;;;;;5054919;28;20023;-80
2021/04/30 10:57:15;;;;;;;7.82;3.30;;;22.40;55.60;;;;;;5053560;28;20025;-83
2021/04/30 10:59:53;;;;;;;10.45;4.05;;;22.40;55.00;;;;;;5053506;28;20083;-81
2021/04/30 11:02:30;;;;;;;5.60;3.65;;;22.40;55.40;;;;;;5053544;28;20079;-81
2021/04/30 11:05:05;;;;;;;7.70;3.80;;;22.40;55.30;;;;;;5053529;28;20043;-77
2021/04/30 11:07:33;;;;;;;8.48;3.35;;;22.40;55.20;;;;;;5053450;28;20029;-84
2021/04/30 11:09:59;;;;;;;4.40;3.35;;;22.50;54.10;;;;;;5054653;28;20029;-85
2021/04/30 11:12:27;;;;;;;5.93;3.17;;;22.40;54.40;;;;;;5053627;28;20053;-86
2021/04/30 11:15:10;;;;;;;6.13;3.50;;;22.50;54.10;;;;;;5053261;28;20025;-83
2021/04/30 11:17:46;;;;;;;15.57;3.67;;;22.50;54.00;;;;;;5053067;28;20102;-77
2021/04/30 11:20:20;;;;;;;5.03;3.30;;;22.40;54.70;;;;;;5054548;28;20024;-81
2021/04/30 11:23:10;;;;;;;8.25;3.50;;;22.50;54.80;;;;;;5052998;28;20029;-79
2021/04/30 11:25:58;;;;;;;5.30;3.50;;;22.50;55.40;;;;;;5052946;28;20068;-77
2021/04/30 11:28:30;;;;;;;7.05;3.72;;;22.40;54.80;;;;;;5053086;28;20028;-82
2021/04/30 11:31:00;;;;;;;8.02;3.70;;;22.40;54.90;;;;;;5054268;28;20104;-78
2021/04/30 11:33:26;;;;;;;5.57;3.00;;;22.30;55.50;;;;;;5052913;28;20028;-80
2021/04/30 11:35:53;;;;;;;6.45;3.40;;;22.40;55.10;;;;;;5054142;28;20067;-81
2021/04/30 11:38:19;;;;;;;7.90;3.70;;;22.50;54.40;;;;;;5054259;28;20024;-77
2021/04/30 11:40:57;;;;;;;13.60;3.80;;;22.50;53.80;;;;;;5054053;28;20410;-79
2021/04/30 11:43:23;;;;;;;5.57;3.35;;;22.70;53.80;;;;;;5053890;28;20021;-76
2021/04/30 11:45:52;;;;;;;5.53;3.35;;;22.80;53.90;;;;;;5054209;28;20127;-79
2021/04/30 11:48:26;;;;;;;8.20;3.85;;;22.90;53.00;;;;;;5052342;28;20025;-76
2021/04/30 11:51:10;;;;;;;6.60;3.25;;;22.80;53.70;;;;;;5052451;28;20091;-76
2021/04/30 11:53:39;;;;;;;5.80;3.15;;;22.90;53.60;;;;;;5053866;28;20109;-76
2021/04/30 11:56:06;;;;;;;10.45;4.43;;;23.10;53.40;;;;;;5054152;28;20032;-75
2021/04/30 11:58:43;;;;;;;11.15;3.53;;;23.30;54.10;;;;;;5052449;28;20390;-76
2021/04/30 12:01:11;;;;;;;5.30;3.17;;;23.50;53.10;;;;;;5053590;28;20075;-75
2021/04/30 12:03:47;;;;;;;4.25;3.60;;;23.60;53.40;;;;;;5052870;28;20043;-75
2021/04/30 12:06:18;;;;;;;5.68;3.65;;;23.80;52.90;;;;;;5053545;28;20025;-75
2021/04/30 12:08:46;;;;;;;6.82;3.33;;;24.00;52.50;;;;;;5052253;28;20086;-76
2021/04/30 12:11:27;;;;;;;5.53;2.97;;;24.10;52.60;;;;;;5053549;28;20021;-76
2021/04/30 12:13:56;;;;;;;8.10;3.88;;;24.20;51.80;;;;;;5053542;28;20021;-78
2021/04/30 12:16:22;;;;;;;5.63;3.70;;;24.10;51.70;;;;;;5052229;28;20116;-77
2021/04/30 12:18:49;;;;;;;6.05;3.50;;;24.20;51.30;;;;;;5051952;28;20077;-76
2021/04/30 12:21:32;;;;;;;7.40;3.75;;;24.20;51.80;;;;;;5053370;28;20073;-77
2021/04/30 12:23:59;;;;;;;12.23;3.63;;;24.20;51.90;;;;;;5053373;28;20056;-80
2021/04/30 12:26:27;;;;;;;6.40;3.65;;;24.30;52.10;;;;;;5053477;28;20444;-77
2021/04/30 12:28:56;;;;;;;7.60;4.15;;;24.30;52.30;;;;;;5052060;28;20101;-77
2021/04/30 12:31:23;;;;;;;6.72;3.40;;;24.30;51.70;;;;;;5053315;28;20067;-77
2021/04/30 12:33:50;;;;;;;5.40;2.97;;;24.30;51.80;;;;;;5052067;28;20029;-80
2021/04/30 12:36:27;;;;;;;4.78;3.90;;;24.40;51.10;;;;;;5053368;28;20108;-76
2021/04/30 12:38:55;;;;;;;4.88;3.47;;;24.20;51.70;;;;;;5053214;28;20056;-79
2021/04/30 12:41:26;;;;;;;6.78;3.60;;;24.30;51.90;;;;;;5051989;28;20025;-79
2021/04/30 12:44:00;;;;;;;5.00;3.30;;;24.30;51.30;;;;;;5051956;28;20021;-76